Time;durP1;ratioP1;P1;durP2;ratioP2;P2;SDS_P1;SDS_P2;PMS_P1;PMS_P2;Temp;Humidity;BMP_temperature;BMP_pressure;BME280_temperature;BME280_humidity;BME280_pressure;Samples;Min_cycle;Max_cycle;Signal;HPM_P1;HPM_P2
2023/11/20 00:00:18;;;;;;;10.07;1.15;;;11.90;99.90;;;;;;4181516;28;20176;-91
2023/11/20 00:02:19;;;;;;;2.30;0.65;;;11.90;99.90;;;;;;4198268;28;20163;-92
2023/11/20 00:04:20;;;;;;;3.65;0.88;;;11.90;99.90;;;;;;4198081;28;20198;-91
2023/11/20 00:06:20;;;;;;;4.30;0.57;;;12.00;99.90;;;;;;4181464;28;20174;-93
2023/11/20 00:08:22;;;;;;;6.70;0.50;;;12.10;99.90;;;;;;4198007;28;20736;-91
2023/11/20 00:10:22;;;;;;;2.47;0.50;;;12.00;99.90;;;;;;4181143;28;20199;-90
2023/11/20 00:12:23;;;;;;;2.15;0.50;;;11.90;99.90;;;;;;4181464;28;20659;-91
2023/11/20 00:14:24;;;;;;;4.88;0.88;;;11.80;99.90;;;;;;4181090;28;20179;-91
2023/11/20 00:16:25;;;;;;;5.60;1.13;;;11.90;99.90;;;;;;4181188;28;20171;-93
2023/11/20 00:18:26;;;;;;;3.78;0.70;;;12.00;99.90;;;;;;4181278;28;20187;-91
2023/11/20 00:20:27;;;;;;;4.15;0.98;;;11.90;99.90;;;;;;4181525;28;20175;-91
2023/11/20 00:22:28;;;;;;;7.88;1.30;;;12.00;99.90;;;;;;4197875;28;20175;-92
2023/11/20 00:24:28;;;;;;;8.02;1.25;;;11.90;99.90;;;;;;4181226;28;20529;-92
2023/11/20 00:26:29;;;;;;;3.75;1.25;;;11.90;99.90;;;;;;4180855;28;20678;-91
2023/11/20 00:28:37;;;;;;;1.65;0.82;;;11.90;99.90;;;;;;4181678;28;20252;-91
2023/11/20 00:30:37;;;;;;;6.30;1.15;;;11.70;99.90;;;;;;4181263;28;20229;-91
2023/11/20 00:32:38;;;;;;;8.27;0.65;;;11.80;99.90;;;;;;4181359;28;20257;-91
2023/11/20 00:34:39;;;;;;;2.75;0.63;;;11.80;99.90;;;;;;4181051;28;20181;-91
2023/11/20 00:36:40;;;;;;;5.45;0.75;;;11.80;99.90;;;;;;4181117;28;20251;-91
2023/11/20 00:38:41;;;;;;;4.25;1.35;;;11.80;99.90;;;;;;4180942;28;20195;-91
2023/11/20 00:40:43;;;;;;;4.63;0.70;;;11.90;99.90;;;;;;4197885;28;20177;-91
2023/11/20 00:42:44;;;;;;;4.20;0.55;;;11.80;99.90;;;;;;4181307;28;20560;-91
2023/11/20 00:44:45;;;;;;;5.22;1.38;;;11.70;99.90;;;;;;4181020;28;20266;-92
2023/11/20 00:46:46;;;;;;;4.47;1.20;;;11.60;99.90;;;;;;4181017;28;20171;-91
2023/11/20 00:48:47;;;;;;;4.75;0.47;;;11.70;99.90;;;;;;4181605;28;20563;-92
2023/11/20 00:50:47;;;;;;;3.55;1.02;;;11.70;99.90;;;;;;4184594;28;20182;-92
2023/11/20 00:52:48;;;;;;;1.95;0.70;;;11.70;99.90;;;;;;4184638;28;20199;-91
2023/11/20 00:54:49;;;;;;;1.90;0.50;;;11.70;99.90;;;;;;4184666;28;20175;-91
2023/11/20 00:56:50;;;;;;;2.13;0.30;;;11.70;99.90;;;;;;4184609;28;20547;-91
2023/11/20 00:58:50;;;;;;;4.00;0.35;;;11.80;99.90;;;;;;4184489;28;20655;-91
2023/11/20 01:00:54;;;;;;;3.92;0.70;;;11.80;99.90;;;;;;4184582;28;20172;-92
2023/11/20 01:02:55;;;;;;;2.30;0.35;;;11.80;99.90;;;;;;4184401;28;20167;-91
2023/11/20 01:04:55;;;;;;;4.47;0.90;;;11.80;99.90;;;;;;4184416;28;20612;-92
2023/11/20 01:06:56;;;;;;;1.45;0.20;;;11.90;99.90;;;;;;4201030;28;20528;-92
2023/11/20 01:08:57;;;;;;;6.93;0.95;;;11.90;99.90;;;;;;4200573;28;20685;-92
2023/11/20 01:10:58;;;;;;;2.03;0.93;;;11.90;99.90;;;;;;4184092;28;20174;-91
2023/11/20 01:12:59;;;;;;;23.60;1.00;;;11.90;99.90;;;;;;4183953;28;20176;-91
2023/11/20 01:15:00;;;;;;;0.40;0.32;;;11.90;99.90;;;;;;4200526;28;20195;-91
2023/11/20 01:17:02;;;;;;;5.38;0.93;;;12.00;99.90;;;;;;4184076;28;20171;-92
2023/11/20 01:19:03;;;;;;;0.68;0.45;;;12.00;99.90;;;;;;4184043;28;20245;-92
2023/11/20 01:21:04;;;;;;;1.77;0.55;;;12.00;99.90;;;;;;4200556;28;20170;-91
2023/11/20 01:23:05;;;;;;;8.25;1.45;;;12.00;99.90;;;;;;4183720;28;20707;-92
2023/11/20 01:25:06;;;;;;;7.18;0.43;;;12.10;99.90;;;;;;4183883;28;20183;-93
2023/11/20 01:27:06;;;;;;;2.05;0.60;;;12.10;99.90;;;;;;4184001;28;20661;-92
2023/11/20 01:29:08;;;;;;;6.95;1.15;;;12.00;99.90;;;;;;4200207;28;20195;-91
2023/11/20 01:31:09;;;;;;;3.13;0.95;;;12.00;99.90;;;;;;4183905;28;20203;-92
2023/11/20 01:33:09;;;;;;;4.22;0.60;;;12.00;99.90;;;;;;4200560;28;20220;-92
2023/11/20 01:35:11;;;;;;;5.45;0.85;;;11.90;99.90;;;;;;4183772;28;20172;-90
2023/11/20 01:37:12;;;;;;;0.95;0.35;;;11.90;99.90;;;;;;4200229;28;20590;-92
2023/11/20 01:39:13;;;;;;;2.70;0.65;;;11.90;99.90;;;;;;4183619;28;20187;-92
2023/11/20 01:41:14;;;;;;;9.05;0.93;;;11.90;99.90;;;;;;4183613;28;20184;-92
2023/11/20 01:43:14;;;;;;;2.42;0.65;;;12.00;99.90;;;;;;4200006;28;20257;-92
2023/11/20 01:45:15;;;;;;;3.50;0.40;;;12.10;99.90;;;;;;4183771;28;20671;-91
2023/11/20 01:47:17;;;;;;;5.38;0.70;;;12.10;99.90;;;;;;4183660;28;20164;-91
2023/11/20 01:49:18;;;;;;;4.15;0.85;;;12.10;99.90;;;;;;4183600;28;20248;-91
2023/11/20 01:51:19;;;;;;;0.75;0.30;;;12.20;99.90;;;;;;4183655;28;20172;-92
2023/11/20 01:53:20;;;;;;;3.58;1.00;;;12.10;99.90;;;;;;4183561;28;20575;-92
2023/11/20 01:55:21;;;;;;;7.18;0.70;;;12.10;99.90;;;;;;4183508;28;20167;-92
2023/11/20 01:57:21;;;;;;;0.10;0.00;;;12.00;99.90;;;;;;4200245;28;20651;-91
2023/11/20 01:59:23;;;;;;;4.32;0.68;;;11.90;99.90;;;;;;4183431;28;20680;-91
2023/11/20 02:01:24;;;;;;;1.77;0.88;;;11.80;99.90;;;;;;4183288;28;20187;-92
2023/11/20 02:03:26;;;;;;;5.25;0.40;;;11.80;99.90;;;;;;4183511;28;20557;-92
2023/11/20 02:05:27;;;;;;;3.13;1.00;;;11.80;99.90;;;;;;4183535;28;20183;-92
2023/11/20 02:07:28;;;;;;;0.85;0.47;;;11.70;99.90;;;;;;4200096;28;20266;-92
2023/11/20 02:09:29;;;;;;;4.43;0.85;;;11.70;99.90;;;;;;4183271;28;20217;-92
2023/11/20 02:11:30;;;;;;;3.00;0.35;;;11.60;99.90;;;;;;4199920;28;20167;-92
2023/11/20 02:13:32;;;;;;;2.65;0.68;;;11.60;99.90;;;;;;4183270;28;20201;-92
2023/11/20 02:15:33;;;;;;;5.00;1.17;;;11.70;99.90;;;;;;4183483;28;20178;-91
2023/11/20 02:17:34;;;;;;;0.50;0.43;;;11.60;99.90;;;;;;4183413;28;20206;-92
2023/11/20 02:19:35;;;;;;;3.17;0.50;;;11.50;99.90;;;;;;4199821;28;20191;-92
2023/11/20 02:21:35;;;;;;;16.05;2.42;;;11.60;99.90;;;;;;4200010;28;20179;-92
2023/11/20 02:23:36;;;;;;;6.72;0.60;;;11.60;99.90;;;;;;4183087;28;20266;-91
2023/11/20 02:25:37;;;;;;;16.88;0.60;;;11.60;99.90;;;;;;4183142;28;20184;-92
2023/11/20 02:28:09;;;;;;;12.05;1.40;;;11.70;99.90;;;;;;4199501;28;20642;-91
2023/11/20 02:30:11;;;;;;;7.88;0.93;;;11.60;99.90;;;;;;4199313;28;20308;-91
2023/11/20 02:32:12;;;;;;;8.63;1.23;;;11.60;99.90;;;;;;4182907;28;20703;-91
2023/11/20 02:34:14;;;;;;;5.90;0.70;;;11.60;99.90;;;;;;4199547;28;20659;-92
2023/11/20 02:36:14;;;;;;;3.67;0.77;;;11.60;99.90;;;;;;4182911;28;20322;-91
2023/11/20 02:38:15;;;;;;;3.47;0.50;;;11.60;99.90;;;;;;4182925;28;20257;-91
2023/11/20 02:40:16;;;;;;;18.90;2.58;;;11.60;99.90;;;;;;4199274;28;20202;-91
2023/11/20 02:42:18;;;;;;;11.15;1.27;;;11.50;99.90;;;;;;4182632;28;20314;-92
2023/11/20 02:44:19;;;;;;;2.30;0.63;;;11.50;99.90;;;;;;4182888;28;20202;-92
2023/11/20 02:46:19;;;;;;;3.78;0.95;;;11.50;99.90;;;;;;4182690;28;20175;-92
2023/11/20 02:48:31;;;;;;;2.83;0.52;;;11.40;99.90;;;;;;4182573;28;20234;-91
2023/11/20 02:50:34;;;;;;;4.47;0.80;;;11.40;99.90;;;;;;4182659;28;20207;-92
2023/11/20 02:52:34;;;;;;;6.90;0.77;;;11.40;99.90;;;;;;4199265;28;20167;-92
2023/11/20 02:54:36;;;;;;;2.67;0.40;;;11.40;99.90;;;;;;4182654;28;20283;-92
2023/11/20 02:56:40;;;;;;;2.38;0.73;;;11.30;99.90;;;;;;4182898;28;20631;-92
2023/11/20 02:58:40;;;;;;;8.70;0.95;;;11.40;99.90;;;;;;4182631;28;20640;-91
2023/11/20 03:00:41;;;;;;;2.05;0.40;;;11.40;99.90;;;;;;4199047;28;20224;-92
2023/11/20 03:02:42;;;;;;;5.38;0.80;;;11.50;99.90;;;;;;4182323;28;20171;-91
2023/11/20 03:04:44;;;;;;;1.60;0.70;;;11.40;99.90;;;;;;4182568;28;20167;-92
2023/11/20 03:06:45;;;;;;;6.40;0.95;;;11.50;99.90;;;;;;4182418;28;20187;-92
2023/11/20 03:08:46;;;;;;;4.82;0.75;;;11.40;99.90;;;;;;4182319;28;20186;-91
2023/11/20 03:10:47;;;;;;;6.18;0.98;;;11.40;99.90;;;;;;4182282;28;20239;-92
2023/11/20 03:12:48;;;;;;;6.65;0.60;;;11.30;99.90;;;;;;4181692;28;20194;-90
2023/11/20 03:14:49;;;;;;;4.35;0.65;;;11.30;99.90;;;;;;4182377;28;20180;-92
2023/11/20 03:16:50;;;;;;;1.85;0.55;;;11.20;99.90;;;;;;4182235;28;20168;-92
2023/11/20 03:18:51;;;;;;;4.30;1.00;;;11.20;99.90;;;;;;4182429;28;20680;-92
2023/11/20 03:20:52;;;;;;;4.32;0.57;;;11.10;99.90;;;;;;4182444;28;20164;-92
2023/11/20 03:22:52;;;;;;;16.90;1.75;;;11.10;99.90;;;;;;4182151;28;20188;-92
2023/11/20 03:24:53;;;;;;;3.28;1.05;;;11.20;99.90;;;;;;4182105;28;20188;-91
2023/11/20 03:26:56;;;;;;;1.05;0.50;;;11.20;99.90;;;;;;4182222;28;20632;-91
2023/11/20 03:28:56;;;;;;;9.13;1.90;;;11.20;99.90;;;;;;4181884;28;20195;-92
2023/11/20 03:30:57;;;;;;;8.77;1.48;;;11.10;99.90;;;;;;4182258;28;20171;-93
2023/11/20 03:32:58;;;;;;;6.53;0.75;;;11.10;99.90;;;;;;4182446;28;20166;-91
2023/11/20 03:34:59;;;;;;;6.55;0.65;;;11.00;99.90;;;;;;4182247;28;20652;-92
2023/11/20 03:37:00;;;;;;;5.07;1.23;;;11.00;99.90;;;;;;4198560;28;20159;-92
2023/11/20 03:39:01;;;;;;;6.00;0.50;;;10.90;99.90;;;;;;4181966;28;20203;-92
2023/11/20 03:41:02;;;;;;;14.05;0.73;;;10.90;99.90;;;;;;4181881;28;20197;-92
2023/11/20 03:43:03;;;;;;;4.68;0.88;;;11.00;99.90;;;;;;4181911;28;20186;-93
2023/11/20 03:45:04;;;;;;;2.65;0.50;;;11.00;99.90;;;;;;4181793;28;20195;-92
2023/11/20 03:47:05;;;;;;;3.40;0.52;;;11.00;99.90;;;;;;4181650;28;20175;-90
2023/11/20 03:49:06;;;;;;;2.67;0.43;;;11.10;99.90;;;;;;4198001;28;20214;-92
2023/11/20 03:51:06;;;;;;;6.80;0.98;;;11.10;99.90;;;;;;4181752;28;20671;-92
2023/11/20 03:53:08;;;;;;;6.82;1.40;;;11.00;99.90;;;;;;4181910;28;20624;-92
2023/11/20 03:55:09;;;;;;;20.20;1.45;;;11.00;99.90;;;;;;4181651;28;20172;-91
2023/11/20 03:57:10;;;;;;;8.57;0.68;;;11.00;99.90;;;;;;4181488;28;20171;-92
2023/11/20 03:59:12;;;;;;;2.40;0.60;;;11.00;99.90;;;;;;4197988;28;20290;-92
2023/11/20 04:01:13;;;;;;;7.07;1.27;;;10.90;99.90;;;;;;4181539;28;20167;-91
2023/11/20 04:03:14;;;;;;;0.77;0.65;;;10.90;99.90;;;;;;4181381;28;20171;-92
2023/11/20 04:05:14;;;;;;;6.82;0.90;;;10.90;99.90;;;;;;4198205;28;20167;-91
2023/11/20 04:07:15;;;;;;;2.58;0.43;;;10.90;99.90;;;;;;4181527;28;20591;-91
2023/11/20 04:09:16;;;;;;;4.07;0.82;;;11.00;99.90;;;;;;4181102;28;20231;-91
2023/11/20 04:11:17;;;;;;;3.05;0.73;;;10.90;99.90;;;;;;4181601;28;20189;-92
2023/11/20 04:13:18;;;;;;;1.40;0.30;;;10.90;99.90;;;;;;4181493;28;20167;-93
2023/11/20 04:15:19;;;;;;;7.43;1.10;;;10.80;99.90;;;;;;4197982;28;20622;-91
2023/11/20 04:17:20;;;;;;;7.68;0.98;;;10.80;99.90;;;;;;4181277;28;20194;-92
2023/11/20 04:19:21;;;;;;;2.95;0.63;;;10.80;99.90;;;;;;4197724;28;20194;-92
2023/11/20 04:21:22;;;;;;;7.35;1.08;;;10.80;99.90;;;;;;4181398;28;20167;-91
2023/11/20 04:23:23;;;;;;;14.10;1.90;;;10.70;99.90;;;;;;4197186;28;20254;-92
2023/11/20 04:25:23;;;;;;;3.38;0.63;;;10.70;99.90;;;;;;4181544;28;20171;-92
2023/11/20 04:27:24;;;;;;;4.22;1.23;;;10.70;99.90;;;;;;4181214;28;20213;-92
2023/11/20 04:29:25;;;;;;;2.13;0.52;;;10.70;99.90;;;;;;4181151;28;20298;-92
2023/11/20 04:31:26;;;;;;;7.30;1.27;;;10.60;99.90;;;;;;4197869;28;20178;-91
2023/11/20 04:33:27;;;;;;;6.43;0.80;;;10.60;99.90;;;;;;4197919;28;20166;-92
2023/11/20 04:35:28;;;;;;;9.80;1.70;;;10.60;99.90;;;;;;4181294;28;20273;-91
2023/11/20 04:37:29;;;;;;;3.88;0.65;;;10.60;99.90;;;;;;4181259;28;20195;-91
2023/11/20 04:39:30;;;;;;;2.38;0.50;;;10.60;99.90;;;;;;4181264;28;20191;-93
2023/11/20 04:41:31;;;;;;;4.85;1.02;;;10.50;99.90;;;;;;4181064;28;20175;-92
2023/11/20 04:43:32;;;;;;;3.75;1.58;;;10.60;99.90;;;;;;4197761;28;20277;-93
2023/11/20 04:45:33;;;;;;;11.38;0.93;;;10.60;99.90;;;;;;4181167;28;20172;-92
2023/11/20 04:47:33;;;;;;;7.05;0.60;;;10.60;99.90;;;;;;4181279;28;20649;-91
2023/11/20 04:49:36;;;;;;;8.23;0.50;;;10.50;99.90;;;;;;4181368;28;20309;-92
2023/11/20 04:51:37;;;;;;;2.08;0.47;;;10.60;99.90;;;;;;4181371;28;20258;-92
2023/11/20 04:53:38;;;;;;;6.40;0.52;;;10.60;99.90;;;;;;4197583;28;20186;-91
2023/11/20 04:55:38;;;;;;;9.48;2.35;;;10.60;99.90;;;;;;4181266;28;20168;-92
2023/11/20 04:57:39;;;;;;;7.72;0.93;;;10.60;99.90;;;;;;4180980;28;20163;-92
2023/11/20 04:59:40;;;;;;;11.65;1.67;;;10.50;99.90;;;;;;4180826;28;20219;-92
2023/11/20 05:01:41;;;;;;;7.53;1.25;;;10.50;99.90;;;;;;4181265;28;20168;-92
2023/11/20 05:03:43;;;;;;;5.43;0.43;;;10.60;99.90;;;;;;4180982;28;20176;-91
2023/11/20 05:05:43;;;;;;;0.90;0.45;;;10.60;99.90;;;;;;4180927;28;20213;-92
2023/11/20 05:07:44;;;;;;;8.98;1.40;;;10.60;99.90;;;;;;4181039;28;20179;-93
2023/11/20 05:09:45;;;;;;;2.83;0.70;;;10.60;99.90;;;;;;4180859;28;20296;-92
2023/11/20 05:11:46;;;;;;;1.23;0.40;;;10.50;99.90;;;;;;4180836;28;20179;-92
2023/11/20 05:13:47;;;;;;;8.80;1.13;;;10.40;99.90;;;;;;4180882;28;20171;-91
2023/11/20 05:15:48;;;;;;;5.43;0.82;;;10.40;99.90;;;;;;4180918;28;20183;-92
2023/11/20 05:17:49;;;;;;;8.25;1.25;;;10.30;99.90;;;;;;4181000;28;20229;-92
2023/11/20 05:19:49;;;;;;;4.97;0.73;;;10.30;99.90;;;;;;4180682;28;20195;-91
2023/11/20 05:21:50;;;;;;;7.50;1.27;;;10.30;99.90;;;;;;4180757;28;20189;-92
2023/11/20 05:23:51;;;;;;;6.00;0.75;;;10.30;99.90;;;;;;4180771;28;20266;-91
2023/11/20 05:25:52;;;;;;;2.85;0.40;;;10.30;99.90;;;;;;4180626;28;20245;-91
2023/11/20 05:27:53;;;;;;;12.90;1.60;;;10.30;99.90;;;;;;4180988;28;20694;-92
2023/11/20 05:29:54;;;;;;;2.78;0.80;;;10.30;99.90;;;;;;4197212;28;20210;-94
2023/11/20 05:31:54;;;;;;;3.45;0.40;;;10.40;99.90;;;;;;4180805;28;20178;-91
2023/11/20 05:33:55;;;;;;;4.03;0.68;;;10.60;99.90;;;;;;4196995;28;20285;-91
2023/11/20 05:35:56;;;;;;;7.75;1.15;;;10.70;99.90;;;;;;4182962;28;20237;-92
2023/11/20 05:37:57;;;;;;;3.38;1.02;;;10.80;99.90;;;;;;4183560;28;20172;-92
2023/11/20 05:39:57;;;;;;;2.22;0.60;;;10.80;99.90;;;;;;4200345;28;20262;-92
2023/11/20 05:41:58;;;;;;;4.00;0.98;;;10.80;99.90;;;;;;4183762;28;20206;-93
2023/11/20 05:43:59;;;;;;;2.83;0.60;;;10.80;99.90;;;;;;4200247;28;20627;-92
2023/11/20 05:46:00;;;;;;;6.68;1.08;;;10.90;99.90;;;;;;4183798;28;20210;-91
2023/11/20 05:48:01;;;;;;;12.00;1.33;;;11.00;99.90;;;;;;4200073;28;20175;-92
2023/11/20 05:50:01;;;;;;;0.90;0.25;;;10.90;99.90;;;;;;4183368;28;20203;-92
2023/11/20 05:52:04;;;;;;;5.78;0.90;;;10.90;99.90;;;;;;4183452;28;20172;-92
2023/11/20 05:54:08;;;;;;;2.30;0.73;;;10.80;99.90;;;;;;4183591;28;20210;-93
2023/11/20 05:56:13;;;;;;;7.32;0.68;;;10.80;99.90;;;;;;4183641;28;20707;-92
2023/11/20 05:58:13;;;;;;;8.30;0.50;;;10.70;99.90;;;;;;4183588;28;20175;-92
2023/11/20 06:00:14;;;;;;;11.00;1.13;;;10.80;99.90;;;;;;4199939;28;20700;-92
2023/11/20 06:02:15;;;;;;;12.73;0.80;;;10.80;99.90;;;;;;4183614;28;20253;-92
2023/11/20 06:04:16;;;;;;;9.02;0.70;;;11.00;99.90;;;;;;4200175;28;20178;-91
2023/11/20 06:06:23;;;;;;;2.28;0.30;;;10.90;99.90;;;;;;4200001;28;20333;-92
2023/11/20 06:08:24;;;;;;;6.35;0.50;;;10.80;99.90;;;;;;4183456;28;20322;-92
2023/11/20 06:10:24;;;;;;;2.38;0.38;;;10.80;99.90;;;;;;4183699;28;20227;-92
2023/11/20 06:12:25;;;;;;;0.60;0.20;;;10.80;99.90;;;;;;4183606;28;20218;-92
2023/11/20 06:14:26;;;;;;;6.53;1.23;;;10.80;99.90;;;;;;4184137;28;20694;-93
2023/11/20 06:16:27;;;;;;;2.00;0.52;;;10.80;99.90;;;;;;4183703;28;20254;-91
2023/11/20 06:18:27;;;;;;;4.05;0.55;;;10.80;99.90;;;;;;4183436;28;20191;-91
2023/11/20 06:20:29;;;;;;;3.53;0.90;;;10.70;99.90;;;;;;4183354;28;20314;-91
2023/11/20 06:22:30;;;;;;;12.70;0.95;;;10.70;99.90;;;;;;4183284;28;20179;-90
2023/11/20 06:24:32;;;;;;;3.83;0.55;;;10.80;99.90;;;;;;4183277;28;20176;-91
2023/11/20 06:26:33;;;;;;;4.95;1.30;;;10.90;99.90;;;;;;4183190;28;20205;-91
2023/11/20 06:28:34;;;;;;;6.57;0.77;;;11.00;99.90;;;;;;4182917;28;20196;-91
2023/11/20 06:30:35;;;;;;;1.25;0.30;;;11.10;99.90;;;;;;4183165;28;20203;-91
2023/11/20 06:32:36;;;;;;;3.53;0.70;;;11.00;99.90;;;;;;4183052;28;20187;-91
2023/11/20 06:34:36;;;;;;;4.80;0.50;;;10.90;99.90;;;;;;4199469;28;20281;-91
2023/11/20 06:36:38;;;;;;;6.25;0.43;;;11.00;99.90;;;;;;4199814;28;20260;-92
2023/11/20 06:38:39;;;;;;;5.45;1.35;;;11.00;99.90;;;;;;4182809;28;20195;-92
2023/11/20 06:40:40;;;;;;;1.10;0.43;;;10.90;99.90;;;;;;4182997;28;20249;-91
2023/11/20 06:42:41;;;;;;;7.18;0.75;;;10.90;99.90;;;;;;4199359;28;20636;-91
2023/11/20 06:44:41;;;;;;;1.45;0.60;;;11.00;99.90;;;;;;4183004;28;20179;-91
2023/11/20 06:46:42;;;;;;;6.07;0.80;;;11.00;99.90;;;;;;4181827;28;20270;-91
2023/11/20 06:48:43;;;;;;;2.45;0.50;;;11.00;99.90;;;;;;4200132;28;20198;-90
2023/11/20 06:50:44;;;;;;;1.48;0.60;;;11.00;99.90;;;;;;4182618;28;20207;-90
2023/11/20 06:52:45;;;;;;;4.05;0.80;;;10.90;99.90;;;;;;4199181;28;20291;-90
2023/11/20 06:54:46;;;;;;;6.95;0.40;;;10.90;99.90;;;;;;4182666;28;20266;-91
2023/11/20 06:56:46;;;;;;;2.78;0.50;;;10.90;99.90;;;;;;4182720;28;20229;-91
2023/11/20 06:58:48;;;;;;;0.75;0.43;;;11.10;99.90;;;;;;4182621;28;20191;-90
2023/11/20 07:00:48;;;;;;;2.50;0.40;;;11.10;99.90;;;;;;4199338;28;20187;-91
2023/11/20 07:02:52;;;;;;;3.47;0.65;;;11.10;99.90;;;;;;4199178;28;20242;-91
2023/11/20 07:04:53;;;;;;;10.23;1.00;;;11.10;99.90;;;;;;4182992;28;20180;-93
2023/11/20 07:06:54;;;;;;;2.83;0.60;;;11.10;99.90;;;;;;4198918;28;20224;-92
2023/11/20 07:08:54;;;;;;;4.35;0.50;;;11.00;99.90;;;;;;4198806;28;20246;-90
2023/11/20 07:10:56;;;;;;;2.50;0.40;;;11.10;99.90;;;;;;4182615;28;20262;-91
2023/11/20 07:12:57;;;;;;;2.60;0.52;;;11.10;99.90;;;;;;4182531;28;20616;-91
2023/11/20 07:14:58;;;;;;;5.25;0.90;;;11.00;99.90;;;;;;4198817;28;20178;-91
2023/11/20 07:16:58;;;;;;;5.80;0.95;;;11.10;99.90;;;;;;4182517;28;20175;-91
2023/11/20 07:18:59;;;;;;;1.48;0.28;;;11.10;99.90;;;;;;4182207;28;20257;-90
2023/11/20 07:21:00;;;;;;;6.63;1.13;;;11.00;99.90;;;;;;4182278;28;20175;-90
2023/11/20 07:23:03;;;;;;;4.38;0.30;;;11.10;99.90;;;;;;4182391;28;20168;-90
2023/11/20 07:25:05;;;;;;;5.35;1.60;;;11.10;99.90;;;;;;4182353;28;20197;-91
2023/11/20 07:27:06;;;;;;;2.50;0.30;;;11.00;99.90;;;;;;4198822;28;20190;-90
2023/11/20 07:29:06;;;;;;;1.05;0.20;;;11.00;99.90;;;;;;4198662;28;20699;-92
2023/11/20 07:31:08;;;;;;;3.22;0.30;;;11.00;99.90;;;;;;4182233;28;20505;-91
2023/11/20 07:33:08;;;;;;;1.08;0.32;;;11.00;99.90;;;;;;4182232;28;20318;-91
2023/11/20 07:35:12;;;;;;;9.27;0.70;;;10.90;99.90;;;;;;4182134;28;20175;-92
2023/11/20 07:37:13;;;;;;;4.78;0.50;;;11.10;99.90;;;;;;4182162;28;20172;-92
2023/11/20 07:39:13;;;;;;;1.77;0.35;;;11.10;99.90;;;;;;4198400;28;20209;-92
2023/11/20 07:41:14;;;;;;;20.52;0.93;;;11.10;99.90;;;;;;4198520;28;20691;-91
2023/11/20 07:43:15;;;;;;;0.70;0.20;;;11.00;99.90;;;;;;4181968;28;20249;-91
2023/11/20 07:45:16;;;;;;;2.58;0.43;;;11.00;99.90;;;;;;4198366;28;20171;-91
2023/11/20 07:47:17;;;;;;;2.47;0.47;;;11.10;99.90;;;;;;4181720;28;20178;-91
2023/11/20 07:49:18;;;;;;;4.22;0.98;;;11.10;99.90;;;;;;4198008;28;20194;-91
2023/11/20 07:51:20;;;;;;;1.90;0.40;;;11.00;99.90;;;;;;4181821;28;20265;-91
2023/11/20 07:53:21;;;;;;;4.30;1.50;;;11.10;99.90;;;;;;4181669;28;20199;-91
2023/11/20 07:55:21;;;;;;;4.53;0.55;;;11.10;99.90;;;;;;4181745;28;20178;-91
2023/11/20 07:57:24;;;;;;;6.00;0.70;;;11.20;99.90;;;;;;4181786;28;20172;-92
2023/11/20 07:59:24;;;;;;;1.48;0.50;;;11.30;99.90;;;;;;4181613;28;20199;-91
2023/11/20 08:01:25;;;;;;;6.00;0.93;;;11.20;99.90;;;;;;4198107;28;20175;-91
2023/11/20 08:03:26;;;;;;;9.48;1.00;;;11.20;99.90;;;;;;4181381;28;20202;-91
2023/11/20 08:05:27;;;;;;;5.05;0.70;;;11.10;99.90;;;;;;4197810;28;20171;-92
2023/11/20 08:07:28;;;;;;;2.33;0.63;;;11.10;99.90;;;;;;4181532;28;20202;-93
2023/11/20 08:09:29;;;;;;;3.67;0.88;;;11.10;99.90;;;;;;4198059;28;20244;-91
2023/11/20 08:11:29;;;;;;;6.40;0.63;;;11.20;99.90;;;;;;4181807;28;20163;-92
2023/11/20 08:13:30;;;;;;;3.55;0.60;;;11.10;99.90;;;;;;4181433;28;20683;-91
2023/11/20 08:15:31;;;;;;;2.03;0.88;;;11.10;99.90;;;;;;4181447;28;20160;-92
2023/11/20 08:17:32;;;;;;;4.40;0.70;;;11.10;99.90;;;;;;4181357;28;20167;-91
2023/11/20 08:19:32;;;;;;;2.67;0.45;;;11.10;99.90;;;;;;4181509;28;20250;-91
2023/11/20 08:21:33;;;;;;;0.55;0.52;;;11.10;99.90;;;;;;4181694;28;20262;-91
2023/11/20 08:23:34;;;;;;;3.88;0.30;;;11.20;99.90;;;;;;4181383;28;20176;-92
2023/11/20 08:25:35;;;;;;;2.70;0.38;;;11.20;99.90;;;;;;4181610;28;20737;-91
2023/11/20 08:27:37;;;;;;;3.55;0.60;;;11.40;99.90;;;;;;4181468;28;20226;-90
2023/11/20 08:29:38;;;;;;;6.00;1.35;;;11.50;99.90;;;;;;4197408;28;21078;-91
2023/11/20 08:31:39;;;;;;;2.92;0.20;;;11.60;99.90;;;;;;4181541;28;20171;-92
2023/11/20 08:33:40;;;;;;;1.40;0.38;;;11.50;99.90;;;;;;4181315;28;20170;-91
2023/11/20 08:35:40;;;;;;;3.40;0.70;;;11.40;99.90;;;;;;4181171;28;20168;-91
2023/11/20 08:37:41;;;;;;;0.50;0.20;;;11.40;99.90;;;;;;4180901;28;20273;-90
2023/11/20 08:39:43;;;;;;;2.13;0.50;;;11.50;99.90;;;;;;4180907;28;20664;-91
2023/11/20 08:41:44;;;;;;;2.58;0.38;;;11.40;99.90;;;;;;4181143;28;20708;-91
2023/11/20 08:43:45;;;;;;;1.83;0.57;;;11.40;99.90;;;;;;4181233;28;20407;-92
2023/11/20 08:45:46;;;;;;;1.67;0.40;;;11.30;99.90;;;;;;4181271;28;20179;-92
2023/11/20 08:47:47;;;;;;;0.60;0.32;;;11.30;99.90;;;;;;4197710;28;20162;-92
2023/11/20 08:49:47;;;;;;;1.02;0.38;;;11.10;99.90;;;;;;4180764;28;20645;-91
2023/11/20 08:51:48;;;;;;;0.88;0.43;;;11.00;99.90;;;;;;4181107;28;20171;-91
2023/11/20 08:53:50;;;;;;;1.85;0.30;;;11.20;99.90;;;;;;4180927;28;20274;-91
2023/11/20 08:55:51;;;;;;;1.65;0.30;;;11.20;99.90;;;;;;4181019;28;20229;-91
2023/11/20 08:57:52;;;;;;;0.63;0.40;;;11.00;99.90;;;;;;4181043;28;20262;-91
2023/11/20 08:59:53;;;;;;;0.88;0.50;;;11.00;99.90;;;;;;4180736;28;20184;-89
2023/11/20 09:01:54;;;;;;;3.28;0.80;;;10.80;99.90;;;;;;4197584;28;20646;-90
2023/11/20 09:03:55;;;;;;;3.10;0.75;;;10.80;99.90;;;;;;4181042;28;20167;-91
2023/11/20 09:05:55;;;;;;;0.30;0.30;;;10.80;99.90;;;;;;4197329;28;20202;-91
2023/11/20 09:07:57;;;;;;;3.40;0.60;;;10.80;99.90;;;;;;4180856;28;20179;-90
2023/11/20 09:09:58;;;;;;;3.45;0.85;;;11.00;99.90;;;;;;4181600;28;20222;-91
2023/11/20 09:11:59;;;;;;;0.75;0.28;;;11.10;99.90;;;;;;4184224;28;20163;-90
2023/11/20 09:14:01;;;;;;;1.08;0.68;;;11.30;99.90;;;;;;4184068;28;20183;-91
2023/11/20 09:16:02;;;;;;;5.38;0.70;;;11.30;99.90;;;;;;4183922;28;20167;-90
2023/11/20 09:18:03;;;;;;;1.98;0.40;;;11.20;99.90;;;;;;4184047;28;20180;-91
2023/11/20 09:20:04;;;;;;;2.95;0.73;;;11.10;99.90;;;;;;4184374;28;20164;-92
2023/11/20 09:22:05;;;;;;;2.50;1.15;;;11.10;99.90;;;;;;4184103;28;20250;-90
2023/11/20 09:24:06;;;;;;;1.55;0.40;;;11.40;99.90;;;;;;4200617;28;20174;-90
2023/11/20 09:26:11;;;;;;;1.40;0.68;;;11.50;99.90;;;;;;4200581;28;20174;-90
2023/11/20 09:28:13;;;;;;;5.78;0.82;;;11.60;99.90;;;;;;4183814;28;20164;-90
2023/11/20 09:30:14;;;;;;;0.98;0.52;;;11.80;99.90;;;;;;4183660;28;20215;-90
2023/11/20 09:32:15;;;;;;;2.17;0.60;;;12.00;99.90;;;;;;4184180;28;20663;-91
2023/11/20 09:34:18;;;;;;;3.30;0.50;;;12.20;99.90;;;;;;4184011;28;20263;-90
2023/11/20 09:36:19;;;;;;;9.48;1.75;;;12.40;99.90;;;;;;4184250;28;20258;-91
2023/11/20 09:38:20;;;;;;;3.45;0.50;;;12.50;99.90;;;;;;4200493;28;20195;-90
2023/11/20 09:40:20;;;;;;;3.05;0.77;;;12.40;99.90;;;;;;4183988;28;20636;-90
2023/11/20 09:42:22;;;;;;;4.20;0.90;;;12.40;99.90;;;;;;4200640;28;20185;-90
2023/11/20 09:44:30;;;;;;;1.27;0.55;;;12.40;99.90;;;;;;4183608;28;20168;-90
2023/11/20 09:46:35;;;;;;;7.15;1.88;;;12.10;99.90;;;;;;4183895;28;20213;-91
2023/11/20 09:48:38;;;;;;;5.15;0.75;;;12.00;99.90;;;;;;4183641;28;20184;-91
2023/11/20 09:50:40;;;;;;;2.30;0.73;;;11.80;99.90;;;;;;4199981;28;20212;-91
2023/11/20 09:52:42;;;;;;;4.00;0.52;;;11.90;99.90;;;;;;4183395;28;20163;-91
2023/11/20 09:54:43;;;;;;;7.57;0.60;;;12.00;99.90;;;;;;4200116;28;20174;-90
2023/11/20 09:56:44;;;;;;;0.95;0.25;;;12.00;99.90;;;;;;4199894;28;20654;-91
2023/11/20 09:58:45;;;;;;;4.88;0.40;;;12.00;99.90;;;;;;4183145;28;20199;-89
2023/11/20 10:00:45;;;;;;;8.13;0.50;;;11.90;99.90;;;;;;4200090;28;20689;-91
2023/11/20 10:02:47;;;;;;;2.67;0.50;;;11.90;99.90;;;;;;4183583;28;20623;-91
2023/11/20 10:04:54;;;;;;;4.15;0.68;;;11.90;99.90;;;;;;4183604;28;20647;-90
2023/11/20 10:06:55;;;;;;;1.65;0.28;;;12.00;99.90;;;;;;4200084;28;20206;-90
2023/11/20 10:08:56;;;;;;;2.03;0.47;;;11.80;99.90;;;;;;4183424;28;20229;-89
2023/11/20 10:10:59;;;;;;;5.97;0.75;;;11.80;99.90;;;;;;4183075;28;20222;-90
2023/11/20 10:13:01;;;;;;;1.33;0.40;;;11.70;99.90;;;;;;4183269;28;20214;-90
2023/11/20 10:15:02;;;;;;;5.22;0.70;;;11.70;99.90;;;;;;4183197;28;20647;-90
2023/11/20 10:17:04;;;;;;;2.53;1.00;;;11.60;99.90;;;;;;4183296;28;20238;-92
2023/11/20 10:19:05;;;;;;;1.05;0.47;;;11.60;99.90;;;;;;4183231;28;20752;-90
2023/11/20 10:21:08;;;;;;;2.33;0.52;;;11.60;99.90;;;;;;4182262;28;20203;-91
2023/11/20 10:23:09;;;;;;;3.35;0.77;;;11.60;99.90;;;;;;4199302;28;20178;-91
2023/11/20 10:25:10;;;;;;;6.07;0.52;;;11.70;99.90;;;;;;4183407;28;20674;-90
2023/11/20 10:27:13;;;;;;;1.15;0.30;;;11.70;99.90;;;;;;4183075;28;20300;-90
2023/11/20 10:29:15;;;;;;;4.32;0.95;;;11.80;99.90;;;;;;4182755;28;20195;-90